createdAt,value
2022-09-15T00:00:22.769Z,14.70
2022-09-15T00:02:50.767Z,14.60
2022-09-15T00:05:19.276Z,14.70
2022-09-15T00:07:47.389Z,14.70
2022-09-15T00:10:15.139Z,14.30
2022-09-15T00:12:42.906Z,14.70
2022-09-15T00:15:14.579Z,14.70
2022-09-15T00:17:43.195Z,14.60
2022-09-15T00:20:11.877Z,14.60
2022-09-15T00:22:39.605Z,14.60
2022-09-15T00:25:07.510Z,14.70
2022-09-15T00:27:35.643Z,14.70
2022-09-15T00:30:03.874Z,14.80
2022-09-15T00:32:33.490Z,14.70
2022-09-15T00:35:01.314Z,14.70
2022-09-15T00:37:29.068Z,14.70
2022-09-15T00:39:56.919Z,14.60
2022-09-15T00:42:24.861Z,14.60
2022-09-15T00:44:56.301Z,14.80
2022-09-15T00:47:42.162Z,14.50
2022-09-15T00:50:14.131Z,14.50
2022-09-15T00:52:46.114Z,14.60
2022-09-15T00:55:17.892Z,14.60
2022-09-15T00:57:48.455Z,14.40
2022-09-15T01:00:19.933Z,14.70
2022-09-15T01:02:50.341Z,14.50
2022-09-15T01:05:20.570Z,14.50
2022-09-15T01:07:52.850Z,14.50
2022-09-15T01:10:24.316Z,14.40
2022-09-15T01:12:53.354Z,14.50
2022-09-15T01:15:23.700Z,14.40
2022-09-15T01:18:03.478Z,14.40
2022-09-15T01:20:59.087Z,14.50
2022-09-15T01:23:59.768Z,14.40
2022-09-15T01:26:51.675Z,14.40
2022-09-15T01:30:01.589Z,14.40
2022-09-15T01:32:51.918Z,14.30
2022-09-15T01:35:33.613Z,14.40
2022-09-15T01:38:08.202Z,14.20
2022-09-15T01:40:42.846Z,14.20
2022-09-15T01:43:11.237Z,14.10
2022-09-15T01:45:43.871Z,14.30
2022-09-15T01:48:12.230Z,14.40
2022-09-15T01:50:43.957Z,14.40
2022-09-15T01:53:16.671Z,14.40
2022-09-15T01:55:49.593Z,14.50
2022-09-15T01:58:17.435Z,14.40
2022-09-15T02:00:52.159Z,14.30
2022-09-15T02:03:23.500Z,14.50
2022-09-15T02:06:01.952Z,14.30
2022-09-15T02:08:37.754Z,14.60
2022-09-15T02:11:15.410Z,14.80
2022-09-15T02:13:48.729Z,14.60
2022-09-15T02:16:21.860Z,14.60
2022-09-15T02:19:11.076Z,14.70
2022-09-15T02:21:47.882Z,14.60
2022-09-15T02:24:19.616Z,14.40
2022-09-15T02:26:51.073Z,14.30
2022-09-15T02:29:22.366Z,14.20
2022-09-15T02:31:54.406Z,14.40
2022-09-15T02:34:26.938Z,14.10
2022-09-15T02:36:56.057Z,14.40
2022-09-15T02:39:28.579Z,14.20
2022-09-15T02:41:56.374Z,14.20
2022-09-15T02:44:24.300Z,14.10
2022-09-15T02:46:53.489Z,14.20
2022-09-15T02:49:21.237Z,14.20
2022-09-15T02:51:48.978Z,14.20
2022-09-15T02:54:16.911Z,14.30
2022-09-15T02:56:44.667Z,14.20
2022-09-15T02:59:12.431Z,14.20
2022-09-15T03:01:40.756Z,14.30
2022-09-15T03:04:10.083Z,14.20
2022-09-15T03:06:37.831Z,14.20
2022-09-15T03:09:07.853Z,14.10
2022-09-15T03:11:36.988Z,14.20
2022-09-15T03:14:06.724Z,14.20
2022-09-15T03:16:36.065Z,14.20
2022-09-15T03:19:04.875Z,14.10
2022-09-15T03:21:34.776Z,14.10
2022-09-15T03:24:03.074Z,14.10
2022-09-15T03:26:31.028Z,14.30
2022-09-15T03:28:58.949Z,14.00
2022-09-15T03:31:26.804Z,14.10
2022-09-15T03:33:56.017Z,14.10
2022-09-15T03:36:23.896Z,14.00
2022-09-15T03:38:53.133Z,14.10
2022-09-15T03:41:21.141Z,14.00
2022-09-15T03:43:49.284Z,14.10
2022-09-15T03:46:17.920Z,13.60
2022-09-15T03:48:47.393Z,13.90
2022-09-15T03:51:15.612Z,13.90
2022-09-15T03:53:44.054Z,13.80
2022-09-15T03:56:19.961Z,13.90
2022-09-15T03:58:47.806Z,13.90
2022-09-15T04:01:15.807Z,13.80
2022-09-15T04:03:48.834Z,13.80
2022-09-15T04:06:19.087Z,13.70
2022-09-15T04:08:46.889Z,13.70
2022-09-15T04:11:16.861Z,13.70
2022-09-15T04:13:45.021Z,13.60
2022-09-15T04:16:15.003Z,13.70
2022-09-15T04:18:43.352Z,13.80
2022-09-15T04:21:14.105Z,13.40
2022-09-15T04:23:42.378Z,13.70
2022-09-15T04:26:15.413Z,13.70
2022-09-15T04:28:44.614Z,13.70
2022-09-15T04:31:14.492Z,13.60
2022-09-15T04:33:44.452Z,13.60
2022-09-15T04:36:16.021Z,13.50
2022-09-15T04:38:44.585Z,13.50
2022-09-15T04:41:14.142Z,13.40
2022-09-15T04:43:43.040Z,13.40
2022-09-15T04:46:12.995Z,13.40
2022-09-15T04:48:40.973Z,13.40
2022-09-15T04:51:11.403Z,13.30
2022-09-15T04:53:39.328Z,13.30
2022-09-15T04:56:08.997Z,13.20
2022-09-15T04:58:40.473Z,13.00
2022-09-15T05:01:09.855Z,13.10
2022-09-15T05:03:39.524Z,13.20
2022-09-15T05:06:09.523Z,13.20
2022-09-15T05:08:37.775Z,13.10
2022-09-15T05:11:08.188Z,13.30
2022-09-15T05:13:37.649Z,13.20
2022-09-15T05:16:07.011Z,13.40
2022-09-15T05:18:35.200Z,13.40
2022-09-15T05:21:06.837Z,13.40
2022-09-15T05:23:36.221Z,13.50
2022-09-15T05:26:06.160Z,13.70
2022-09-15T05:28:35.220Z,13.60
2022-09-15T05:31:08.485Z,13.60
2022-09-15T05:33:36.467Z,13.60
2022-09-15T05:36:07.195Z,13.60
2022-09-15T05:38:35.336Z,13.60
2022-09-15T05:41:03.836Z,13.60
2022-09-15T05:43:32.771Z,13.50
2022-09-15T05:46:00.931Z,13.50
2022-09-15T05:48:29.685Z,13.70
2022-09-15T05:50:58.226Z,13.70
2022-09-15T05:53:28.382Z,13.60
2022-09-15T05:55:57.121Z,13.70
2022-09-15T05:58:25.418Z,13.60
2022-09-15T06:00:54.300Z,13.50
2022-09-15T06:03:26.406Z,13.50
2022-09-15T06:06:00.454Z,13.60
2022-09-15T06:08:33.467Z,13.70
2022-09-15T06:11:06.175Z,13.60
2022-09-15T06:13:34.051Z,13.60
2022-09-15T06:16:03.095Z,13.60
2022-09-15T06:18:30.951Z,13.60
2022-09-15T06:20:58.762Z,13.70
2022-09-15T06:23:26.488Z,13.70
2022-09-15T06:25:55.625Z,13.60
2022-09-15T06:28:24.442Z,13.80
2022-09-15T06:30:52.179Z,13.80
2022-09-15T06:33:19.982Z,13.70
2022-09-15T06:35:47.788Z,13.70
2022-09-15T06:38:15.537Z,13.80
2022-09-15T06:40:43.463Z,13.70
2022-09-15T06:43:12.583Z,13.90
2022-09-15T06:45:40.416Z,13.80
2022-09-15T06:48:23.936Z,13.90
2022-09-15T06:50:56.063Z,14.00
2022-09-15T06:53:23.875Z,13.90
2022-09-15T06:55:51.813Z,14.00
2022-09-15T06:58:21.167Z,14.20
2022-09-15T07:00:48.982Z,14.30
2022-09-15T07:08:14.097Z,14.30
2022-09-15T07:10:44.971Z,14.40
2022-09-15T07:13:13.121Z,14.60
2022-09-15T07:15:43.638Z,14.50
2022-09-15T07:18:11.366Z,14.50
2022-09-15T07:20:40.660Z,14.80
2022-09-15T07:23:08.598Z,14.90
2022-09-15T07:25:36.345Z,14.80
2022-09-15T07:28:04.378Z,14.80
2022-09-15T07:30:32.555Z,15.00
2022-09-15T07:33:01.666Z,15.30
2022-09-15T07:35:29.389Z,15.20
2022-09-15T07:37:57.121Z,15.30
2022-09-15T07:40:25.238Z,15.20
2022-09-15T07:42:53.067Z,15.50
2022-09-15T07:45:20.897Z,15.20
2022-09-15T07:47:48.773Z,15.50
2022-09-15T07:50:18.229Z,15.40
2022-09-15T07:52:46.043Z,15.50
2022-09-15T07:55:13.809Z,15.50
2022-09-15T07:57:41.738Z,15.60
2022-09-15T08:00:10.501Z,15.70
2022-09-15T08:02:41.358Z,15.70
2022-09-15T08:05:09.398Z,15.90
2022-09-15T08:07:39.991Z,16.10
2022-09-15T08:10:09.795Z,16.00
2022-09-15T08:12:37.746Z,16.10
2022-09-15T08:15:06.085Z,16.30
2022-09-15T08:17:35.193Z,16.30
2022-09-15T08:20:03.619Z,16.40
2022-09-15T08:22:31.445Z,16.50
2022-09-15T08:25:00.610Z,16.50
2022-09-15T08:27:28.458Z,16.60
2022-09-15T08:29:56.422Z,16.70
2022-09-15T08:32:24.305Z,16.60
2022-09-15T08:34:52.103Z,16.80
2022-09-15T08:37:19.871Z,16.90
2022-09-15T08:39:47.645Z,16.90
2022-09-15T08:42:18.920Z,16.90
2022-09-15T08:44:52.884Z,17.00
2022-09-15T08:47:24.727Z,17.00
2022-09-15T08:49:59.850Z,17.10
2022-09-15T08:52:33.197Z,17.20
2022-09-15T08:55:05.447Z,17.30
2022-09-15T08:57:34.549Z,17.30
2022-09-15T09:00:02.655Z,17.40
2022-09-15T09:02:50.758Z,17.30
2022-09-15T09:05:36.972Z,17.30
2022-09-15T09:08:27.982Z,17.30
2022-09-15T09:11:04.133Z,17.30
2022-09-15T09:13:39.935Z,17.40
2022-09-15T09:16:22.815Z,17.40
2022-09-15T09:19:11.238Z,17.40
2022-09-15T09:21:42.865Z,17.60
2022-09-15T09:24:16.459Z,17.50
2022-09-15T09:29:18.342Z,17.60
2022-09-15T09:31:47.858Z,18.00
2022-09-15T09:34:23.852Z,18.00
2022-09-15T09:36:56.557Z,18.00
2022-09-15T09:39:24.469Z,18.00
2022-09-15T09:41:52.279Z,18.10
2022-09-15T09:44:31.498Z,18.00
2022-09-15T09:46:59.663Z,18.10
2022-09-15T09:49:30.218Z,18.00
2022-09-15T09:52:02.356Z,18.00
2022-09-15T09:54:32.178Z,18.10
2022-09-15T09:57:23.098Z,18.10
2022-09-15T09:59:53.067Z,18.20
2022-09-15T10:02:23.070Z,18.20
2022-09-15T10:04:52.971Z,18.30
2022-09-15T10:07:23.490Z,18.30
2022-09-15T10:09:59.575Z,18.30
2022-09-15T10:12:31.616Z,18.50
2022-09-15T10:15:05.100Z,18.60
2022-09-15T10:17:51.184Z,18.60
2022-09-15T10:20:25.978Z,18.70
2022-09-15T10:23:03.715Z,18.70
2022-09-15T10:25:55.076Z,18.70
2022-09-15T10:28:24.008Z,18.60
2022-09-15T10:31:05.884Z,18.70
2022-09-15T10:33:35.811Z,18.90
2022-09-15T10:36:08.445Z,19.00
2022-09-15T10:38:42.921Z,19.20
2022-09-15T10:41:23.110Z,19.00
2022-09-15T10:44:14.664Z,19.10
2022-09-15T10:46:54.924Z,19.00
2022-09-15T10:49:44.523Z,19.00
2022-09-15T10:52:21.464Z,19.10
2022-09-15T10:55:15.203Z,19.20
2022-09-15T10:58:02.798Z,19.30
2022-09-15T11:00:38.223Z,19.40
2022-09-15T11:03:32.118Z,19.40
2022-09-15T11:06:09.659Z,19.40
2022-09-15T11:08:54.103Z,19.60
2022-09-15T11:11:31.164Z,19.80
2022-09-15T11:14:13.105Z,19.80
2022-09-15T11:16:54.990Z,19.70
2022-09-15T11:19:45.214Z,19.70
2022-09-15T11:22:15.737Z,19.70
2022-09-15T11:24:49.187Z,19.80
2022-09-15T11:27:23.915Z,19.80
2022-09-15T11:30:05.448Z,19.80
2022-09-15T11:32:41.400Z,19.80
2022-09-15T11:35:33.179Z,19.60
2022-09-15T11:38:11.059Z,19.40
2022-09-15T11:40:45.771Z,19.30
2022-09-15T11:43:19.371Z,18.30
2022-09-15T11:45:51.872Z,17.80
2022-09-15T11:48:25.285Z,17.80
2022-09-15T11:50:59.323Z,17.80
2022-09-15T11:53:33.310Z,17.60
2022-09-15T11:56:11.239Z,17.80
2022-09-15T11:59:01.230Z,17.90
2022-09-15T12:01:33.850Z,18.00
2022-09-15T12:04:05.679Z,18.20
2022-09-15T12:06:44.809Z,18.40
2022-09-15T12:09:15.185Z,18.60
2022-09-15T12:11:45.265Z,18.60
2022-09-15T12:14:16.785Z,18.70
2022-09-15T12:16:45.561Z,18.80
2022-09-15T12:19:23.682Z,19.00
2022-09-15T12:21:58.688Z,19.10
2022-09-15T12:24:36.826Z,18.80
2022-09-15T12:27:05.603Z,18.60
2022-09-15T12:29:41.874Z,18.70
2022-09-15T12:32:21.622Z,19.00
2022-09-15T12:35:01.256Z,19.00
2022-09-15T12:37:40.429Z,19.00
2022-09-15T12:40:27.684Z,19.10
2022-09-15T12:42:55.821Z,19.00
2022-09-15T12:45:27.110Z,19.00
2022-09-15T12:47:58.398Z,19.10
2022-09-15T12:50:30.467Z,19.20
2022-09-15T12:53:03.104Z,19.30
2022-09-15T12:55:35.325Z,19.30
2022-09-15T12:58:09.318Z,19.30
2022-09-15T13:00:45.592Z,19.50
2022-09-15T13:03:50.701Z,19.50
2022-09-15T13:06:21.068Z,19.50
2022-09-15T13:08:52.922Z,19.50
2022-09-15T13:11:38.217Z,19.40
2022-09-15T13:14:21.530Z,19.30
2022-09-15T13:16:57.076Z,19.40
2022-09-15T13:19:30.245Z,19.30
2022-09-15T13:22:04.215Z,19.40
2022-09-15T13:24:45.136Z,19.40
2022-09-15T13:27:14.214Z,19.30
2022-09-15T13:29:49.018Z,19.30
2022-09-15T13:32:27.710Z,19.30
2022-09-15T13:35:20.699Z,19.20
2022-09-15T13:38:26.260Z,19.00
2022-09-15T13:41:19.118Z,18.80
2022-09-15T13:44:23.632Z,18.60
2022-09-15T13:47:05.135Z,18.50
2022-09-15T13:49:48.582Z,18.50
2022-09-15T13:52:27.864Z,18.30
2022-09-15T13:55:10.126Z,18.20
2022-09-15T14:00:34.077Z,18.00
2022-09-15T14:03:06.306Z,18.00
2022-09-15T14:05:35.825Z,18.00
2022-09-15T14:08:08.959Z,18.00
2022-09-15T14:10:45.035Z,18.00
2022-09-15T14:13:17.182Z,18.00
2022-09-15T14:15:58.362Z,18.00
2022-09-15T14:18:26.510Z,18.00
2022-09-15T14:21:05.276Z,17.90
2022-09-15T14:23:33.821Z,17.80
2022-09-15T14:26:02.890Z,17.80
2022-09-15T14:28:33.571Z,17.80
2022-09-15T14:31:02.739Z,17.70
2022-09-15T14:33:43.649Z,17.70
2022-09-15T14:36:23.251Z,17.70
2022-09-15T14:39:08.626Z,17.60
2022-09-15T14:41:37.276Z,17.50
2022-09-15T14:47:13.826Z,17.40
2022-09-15T14:49:41.900Z,17.30
2022-09-15T14:52:24.078Z,17.20
2022-09-15T14:54:56.093Z,17.10
2022-09-15T14:57:30.199Z,17.10
2022-09-15T15:00:07.228Z,17.00
2022-09-15T15:02:48.501Z,17.00
2022-09-15T15:05:22.345Z,17.00
2022-09-15T15:07:51.056Z,17.00
2022-09-15T15:10:22.763Z,17.00
2022-09-15T15:12:53.230Z,16.90
2022-09-15T15:15:22.779Z,16.80
2022-09-15T15:17:54.572Z,16.80
2022-09-15T15:20:24.366Z,16.80
2022-09-15T15:23:13.640Z,16.70
2022-09-15T15:25:42.410Z,16.70
2022-09-15T15:28:30.262Z,16.70
2022-09-15T15:31:13.994Z,16.70
2022-09-15T15:33:47.819Z,16.70
2022-09-15T15:36:15.919Z,16.70
2022-09-15T15:38:51.664Z,16.70
2022-09-15T15:41:22.489Z,16.70
2022-09-15T15:44:03.270Z,16.60
2022-09-15T15:46:53.378Z,16.60
2022-09-15T15:49:25.784Z,16.60
2022-09-15T15:51:54.813Z,16.50
2022-09-15T15:54:23.012Z,16.40
2022-09-15T15:56:51.001Z,16.40
2022-09-15T15:59:19.928Z,16.40
2022-09-15T16:01:53.246Z,16.30
2022-09-15T16:04:21.067Z,16.30
2022-09-15T16:06:49.040Z,16.30
2022-09-15T16:09:18.710Z,16.20
2022-09-15T16:11:46.532Z,16.20
2022-09-15T16:14:14.527Z,16.30
2022-09-15T16:16:42.361Z,16.20
2022-09-15T16:19:12.592Z,16.10
2022-09-15T16:21:42.564Z,16.10
2022-09-15T16:24:14.163Z,16.10
2022-09-15T16:26:42.649Z,16.00
2022-09-15T16:29:10.516Z,16.00
2022-09-15T16:31:39.197Z,15.90
2022-09-15T16:34:07.109Z,15.90
2022-09-15T16:36:36.617Z,15.80
2022-09-15T16:39:04.710Z,15.80
2022-09-15T16:41:38.479Z,15.80
2022-09-15T16:44:14.780Z,15.90
2022-09-15T16:46:42.641Z,15.70
2022-09-15T16:49:10.421Z,15.70
2022-09-15T16:51:39.619Z,15.80
2022-09-15T16:54:14.832Z,15.60
2022-09-15T16:56:43.259Z,15.60
2022-09-15T16:59:11.085Z,15.50
2022-09-15T17:01:39.654Z,15.50
2022-09-15T17:04:14.652Z,15.40
2022-09-15T17:06:44.055Z,15.40
2022-09-15T17:09:11.833Z,15.40
2022-09-15T17:11:39.796Z,15.30
2022-09-15T17:14:07.661Z,15.30
2022-09-15T17:16:35.428Z,15.30
2022-09-15T17:19:03.175Z,15.20
2022-09-15T17:21:30.970Z,15.30
2022-09-15T17:24:00.087Z,15.20
2022-09-15T17:26:31.166Z,15.50
2022-09-15T17:28:59.358Z,15.20
2022-09-15T17:31:27.839Z,15.10
2022-09-15T17:33:55.688Z,15.10
2022-09-15T17:36:23.442Z,15.10
2022-09-15T17:38:51.258Z,15.00
2022-09-15T17:41:22.276Z,15.00
2022-09-15T17:43:50.749Z,15.00
2022-09-15T17:46:18.686Z,15.00
2022-09-15T17:48:46.491Z,14.90
2022-09-15T17:51:17.454Z,14.90
2022-09-15T17:53:46.819Z,14.90
2022-09-15T17:56:14.897Z,15.00
2022-09-15T17:58:44.010Z,14.90
2022-09-15T18:01:14.494Z,14.90
2022-09-15T18:03:44.504Z,14.80
2022-09-15T18:06:12.704Z,14.80
2022-09-15T18:08:41.014Z,14.80
2022-09-15T18:11:09.056Z,14.90
2022-09-15T18:13:37.813Z,14.80
2022-09-15T18:16:08.564Z,14.80
2022-09-15T18:18:36.357Z,14.70
2022-09-15T18:21:09.533Z,14.80
2022-09-15T18:23:39.046Z,14.70
2022-09-15T18:26:06.981Z,14.80
2022-09-15T18:28:34.749Z,14.70
2022-09-15T18:31:02.595Z,14.60
2022-09-15T18:33:31.734Z,14.60
2022-09-15T18:35:59.989Z,14.60
2022-09-15T18:38:28.308Z,14.60
2022-09-15T18:40:57.833Z,14.60
2022-09-15T18:43:27.486Z,14.50
2022-09-15T18:45:59.425Z,14.60
2022-09-15T18:48:27.368Z,14.60
2022-09-15T18:50:56.604Z,14.60
2022-09-15T18:53:24.822Z,14.50
2022-09-15T18:55:52.697Z,14.60
2022-09-15T18:58:20.468Z,14.50
2022-09-15T19:00:49.005Z,14.70
2022-09-15T19:03:16.765Z,14.60
2022-09-15T19:05:45.694Z,14.60
2022-09-15T19:08:15.464Z,14.50
2022-09-15T19:10:44.183Z,14.50
2022-09-15T19:13:13.938Z,14.50
2022-09-15T19:15:43.678Z,14.50
2022-09-15T19:18:11.520Z,14.40
2022-09-15T19:20:40.131Z,14.40
2022-09-15T19:23:08.216Z,14.30
2022-09-15T19:25:37.849Z,14.30
2022-09-15T19:28:05.678Z,14.30
2022-09-15T19:30:33.597Z,14.30
2022-09-15T19:33:02.543Z,14.30
2022-09-15T19:35:30.352Z,14.20
2022-09-15T19:37:58.202Z,14.20
2022-09-15T19:40:26.121Z,14.20
2022-09-15T19:42:55.307Z,14.30
2022-09-15T19:45:23.098Z,14.30
2022-09-15T19:47:50.869Z,14.20
2022-09-15T19:50:18.765Z,14.30
2022-09-15T19:52:46.528Z,14.20
2022-09-15T19:55:14.451Z,14.30
2022-09-15T19:57:43.460Z,14.20
2022-09-15T20:00:14.787Z,14.00
2022-09-15T20:02:42.971Z,14.10
2022-09-15T20:05:11.016Z,14.10
2022-09-15T20:07:38.804Z,14.00
2022-09-15T20:10:07.671Z,14.00
2022-09-15T20:12:35.438Z,13.90
2022-09-15T20:15:03.266Z,14.10
2022-09-15T20:17:32.692Z,14.00
2022-09-15T20:20:00.495Z,14.00
2022-09-15T20:22:28.212Z,14.10
2022-09-15T20:24:57.298Z,14.00
2022-09-15T20:27:25.358Z,14.00
2022-09-15T20:29:53.513Z,13.90
2022-09-15T20:32:23.874Z,13.90
2022-09-15T20:34:57.282Z,13.90
2022-09-15T20:37:25.127Z,13.90
2022-09-15T20:39:52.965Z,14.00
2022-09-15T20:42:20.721Z,14.00
2022-09-15T20:44:48.451Z,13.90
2022-09-15T20:47:16.486Z,13.90
2022-09-15T20:49:44.264Z,13.90
2022-09-15T20:52:13.585Z,13.80
2022-09-15T20:54:41.411Z,13.90
2022-09-15T20:57:09.332Z,13.90
2022-09-15T20:59:37.778Z,13.90
2022-09-15T21:02:06.155Z,13.90
2022-09-15T21:04:34.290Z,13.90
2022-09-15T21:07:02.097Z,13.90
2022-09-15T21:09:31.254Z,13.80
2022-09-15T21:12:00.014Z,13.70
2022-09-15T21:14:27.832Z,13.70
2022-09-15T21:16:55.674Z,13.60
2022-09-15T21:19:23.509Z,13.60
2022-09-15T21:21:51.306Z,13.70
2022-09-15T21:24:19.095Z,13.80
2022-09-15T21:27:05.697Z,13.60
2022-09-15T21:29:34.127Z,13.50
2022-09-15T21:32:02.102Z,13.50
2022-09-15T21:34:31.556Z,13.40
2022-09-15T21:36:59.402Z,13.40
2022-09-15T21:39:27.509Z,13.40
2022-09-15T21:41:56.673Z,13.30
2022-09-15T21:44:24.961Z,13.30
2022-09-15T21:46:53.427Z,13.30
2022-09-15T21:49:21.212Z,13.20
2022-09-15T21:51:49.065Z,13.20
2022-09-15T21:54:17.802Z,13.10
2022-09-15T21:56:45.641Z,13.10
2022-09-15T21:59:15.965Z,13.10
2022-09-15T22:01:43.837Z,12.90
2022-09-15T22:04:11.785Z,13.00
2022-09-15T22:06:42.128Z,12.90
2022-09-15T22:09:13.762Z,12.90
2022-09-15T22:11:42.236Z,12.90
2022-09-15T22:14:11.539Z,12.90
2022-09-15T22:16:41.511Z,12.90
2022-09-15T22:19:10.989Z,12.90
2022-09-15T22:21:41.626Z,12.90
2022-09-15T22:24:11.741Z,12.70
2022-09-15T22:26:40.114Z,12.70
2022-09-15T22:29:07.893Z,12.70
2022-09-15T22:31:36.414Z,12.70
2022-09-15T22:34:05.634Z,12.60
2022-09-15T22:36:33.825Z,12.70
2022-09-15T22:39:05.005Z,12.60
2022-09-15T22:41:34.511Z,12.80
2022-09-15T22:46:30.533Z,12.50
2022-09-15T22:48:58.494Z,12.50
2022-09-15T22:51:27.696Z,12.50
2022-09-15T22:53:56.872Z,12.50
2022-09-15T22:56:25.915Z,12.50
2022-09-15T23:01:24.223Z,12.30
2022-09-15T23:03:52.697Z,12.20
2022-09-15T23:06:20.961Z,12.30
2022-09-15T23:08:52.430Z,12.20
2022-09-15T23:11:20.814Z,12.30
2022-09-15T23:13:49.120Z,12.30
2022-09-15T23:16:17.567Z,12.30
2022-09-15T23:18:45.572Z,12.30
2022-09-15T23:21:14.364Z,12.30
2022-09-15T23:23:44.149Z,12.30
2022-09-15T23:26:14.419Z,12.30
2022-09-15T23:28:42.976Z,12.30
2022-09-15T23:31:12.073Z,12.20
2022-09-15T23:33:40.796Z,12.20
2022-09-15T23:36:11.569Z,12.20
2022-09-15T23:38:41.436Z,12.20
2022-09-15T23:41:10.936Z,12.20
2022-09-15T23:43:40.138Z,12.10
2022-09-15T23:46:08.325Z,12.00
2022-09-15T23:48:36.222Z,11.90
2022-09-15T23:51:04.254Z,11.90
2022-09-15T23:53:32.161Z,11.80
2022-09-15T23:55:59.962Z,11.80
2022-09-15T23:58:28.238Z,11.70
